バンギ・ムポコ国際空港の過去48時間の天気

バンギ・ムポコ国際空港 (Bangui)

現在時刻: 8/18 04:14 WAT (8/18 03:14 UTC) 以下の時間は現地時間です。

過去48時間のMETAR気象情報
時間 風向 風速(m/s) 視程 気温(℃) 湿度(%) 気圧(hPa) 天気現象
18 03:00 静穏 0 8000m 23 100 1012
18 02:00 静穏 0 10km以上 23 100 1012
18 01:00 静穏 0 10km以上 23 100 1012
18 00:00 静穏 0 10km以上 23 100 1012
FEFF 180200Z 00000KT 8000 NSC 23/23 Q1012 NOSIG
FEFF 180100Z 00000KT 9999 FEW010 23/23 Q1012 NOSIG
FEFF 180000Z 00000KT 9999 FEW010 23/23 Q1012 NOSIG
FEFF 172300Z 00000KT CAVOK 23/23 Q1012 NOSIG